Time,TemperatureF,DewpointF,PressureIn,WindDirection,WindDirectionDegrees,WindSpeedMPH,WindSpeedGustMPH,Humidity,HourlyPrecipIn,Conditions,Clouds,dailyrainin,SoftwareType,DateUTC
2013-07-26 00:01:00,63.3,58.1,30.06,NNE,22,3.3,3.3,83,-99.99,,,-99.99,tws,2013-07-26 04:01:00,
2013-07-26 00:02:00,63.3,58.1,30.05,North,0,1.7,1.7,83,-99.99,,,-99.99,tws,2013-07-26 04:02:00,
2013-07-26 00:04:00,63.3,57.9,30.05,NE,45,0.0,0.0,82,-99.99,,,-99.99,tws,2013-07-26 04:04:00,
2013-07-26 00:06:00,63.2,57.9,30.05,NE,45,0.3,0.3,82,-99.99,,,-99.99,tws,2013-07-26 04:06:00,
2013-07-26 00:07:00,63.4,58.1,30.05,ENE,67,1.7,1.7,82,-99.99,,,-99.99,tws,2013-07-26 04:07:00,
2013-07-26 00:12:00,63.3,58.2,30.05,West,270,0.0,0.0,83,-99.99,,,-99.99,tws,2013-07-26 04:12:00,
2013-07-26 00:17:00,63.0,58.0,30.05,ENE,67,2.1,2.1,83,-99.99,,,-99.99,tws,2013-07-26 04:17:00,
2013-07-26 00:22:00,63.1,58.1,30.05,NNE,22,1.5,1.5,83,-99.99,,,-99.99,tws,2013-07-26 04:22:00,
2013-07-26 00:27:00,63.3,57.9,30.06,North,360,0.7,0.7,82,-99.99,,,-99.99,tws,2013-07-26 04:27:00,
2013-07-26 00:32:00,63.6,58.1,30.07,ENE,67,0.6,0.6,81,-99.99,,,-99.99,tws,2013-07-26 04:32:00,
2013-07-26 00:37:00,63.1,58.2,30.06,NNE,22,0.2,0.2,84,-99.99,,,-99.99,tws,2013-07-26 04:37:00,
2013-07-26 00:42:00,63.2,57.9,30.05,North,360,0.5,0.5,82,-99.99,,,-99.99,tws,2013-07-26 04:42:00,
2013-07-26 00:47:00,63.1,58.1,30.06,North,360,0.0,0.0,83,-99.99,,,-99.99,tws,2013-07-26 04:47:00,
2013-07-26 00:52:00,63.2,58.4,30.06,North,0,0.8,0.8,84,-99.99,,,-99.99,tws,2013-07-26 04:52:00,
2013-07-26 00:57:00,63.2,57.8,30.05,NE,45,0.7,0.7,82,-99.99,,,-99.99,tws,2013-07-26 04:57:00,
2013-07-26 01:02:00,63.3,57.9,30.05,SSE,157,0.0,0.0,82,-99.99,,,-99.99,tws,2013-07-26 05:02:00,
2013-07-26 01:07:00,63.2,58.3,30.06,NNE,22,1.7,1.7,83,-99.99,,,-99.99,tws,2013-07-26 05:07:00,
2013-07-26 01:12:00,63.0,57.8,30.05,East,90,0.7,0.7,82,-99.99,,,-99.99,tws,2013-07-26 05:12:00,
2013-07-26 01:17:00,63.2,58.2,30.05,NE,45,0.6,0.6,83,-99.99,,,-99.99,tws,2013-07-26 05:17:00,
2013-07-26 01:22:00,62.8,58.1,30.06,NE,45,0.3,0.3,84,-99.99,,,-99.99,tws,2013-07-26 05:22:00,
2013-07-26 01:27:00,63.2,57.9,30.06,NNE,22,1.0,1.0,82,-99.99,,,-99.99,tws,2013-07-26 05:27:00,
2013-07-26 01:32:00,63.1,57.8,30.06,NE,45,0.2,0.2,82,-99.99,,,-99.99,tws,2013-07-26 05:32:00,
2013-07-26 01:37:00,63.1,57.7,30.06,NNW,337,2.4,2.4,82,-99.99,,,-99.99,tws,2013-07-26 05:37:00,
2013-07-26 01:42:00,63.1,57.9,30.05,ENE,67,1.6,1.6,82,-99.99,,,-99.99,tws,2013-07-26 05:42:00,
2013-07-26 01:47:00,62.6,57.8,30.06,North,360,0.8,0.8,84,-99.99,,,-99.99,tws,2013-07-26 05:47:00,
2013-07-26 01:52:00,63.0,57.7,30.05,NNE,22,3.7,3.7,82,-99.99,,,-99.99,tws,2013-07-26 05:52:00,
2013-07-26 01:57:00,62.7,57.6,30.05,North,0,0.1,0.1,83,-99.99,,,-99.99,tws,2013-07-26 05:57:00,
2013-07-26 02:02:00,62.5,57.3,30.05,NNE,22,0.4,0.4,82,-99.99,,,-99.99,tws,2013-07-26 06:02:00,
2013-07-26 02:07:00,62.7,57.5,30.05,North,360,0.9,0.9,82,-99.99,,,-99.99,tws,2013-07-26 06:07:00,
2013-07-26 02:12:00,62.8,57.5,30.05,North,0,0.9,0.9,82,-99.99,,,-99.99,tws,2013-07-26 06:12:00,
2013-07-26 02:17:00,62.4,57.6,30.05,NE,45,2.4,2.4,84,-99.99,,,-99.99,tws,2013-07-26 06:17:00,
2013-07-26 02:22:00,62.6,57.4,30.05,North,0,1.9,1.9,82,-99.99,,,-99.99,tws,2013-07-26 06:22:00,
2013-07-26 02:27:00,62.3,57.3,30.05,NE,45,2.0,2.0,83,-99.99,,,-99.99,tws,2013-07-26 06:27:00,
2013-07-26 02:32:00,61.8,57.2,30.04,ENE,67,3.7,3.7,84,-99.99,,,-99.99,tws,2013-07-26 06:32:00,
2013-07-26 02:37:00,61.6,57.0,30.04,North,0,7.9,7.9,84,-99.99,,,-99.99,tws,2013-07-26 06:37:00,
2013-07-26 02:42:00,61.7,56.9,30.03,NNE,22,6.3,6.3,83,-99.99,,,-99.99,tws,2013-07-26 06:42:00,
2013-07-26 02:47:00,61.6,56.8,30.04,NE,45,3.8,3.8,83,-99.99,,,-99.99,tws,2013-07-26 06:47:00,
2013-07-26 02:52:00,61.7,57.0,30.03,North,360,3.5,3.5,84,-99.99,,,-99.99,tws,2013-07-26 06:52:00,
2013-07-26 02:57:00,61.6,57.0,30.04,NNE,22,1.5,1.5,84,-99.99,,,-99.99,tws,2013-07-26 06:57:00,
2013-07-26 03:02:00,62.0,57.1,30.05,NNE,22,1.4,1.4,83,-99.99,,,-99.99,tws,2013-07-26 07:02:00,
2013-07-26 03:07:00,61.8,57.0,30.05,North,0,2.3,2.3,83,-99.99,,,-99.99,tws,2013-07-26 07:07:00,
2013-07-26 03:12:00,61.5,57.0,30.05,ENE,67,2.9,2.9,84,-99.99,,,-99.99,tws,2013-07-26 07:12:00,
2013-07-26 03:17:00,61.7,57.3,30.04,NE,45,6.3,6.3,85,-99.99,,,-99.99,tws,2013-07-26 07:17:00,
2013-07-26 03:22:00,61.6,56.7,30.04,NE,45,5.1,5.1,83,-99.99,,,-99.99,tws,2013-07-26 07:22:00,
2013-07-26 03:27:00,61.8,56.9,30.04,NNE,22,6.6,6.6,83,-99.99,,,-99.99,tws,2013-07-26 07:27:00,
2013-07-26 03:32:00,61.8,56.9,30.05,NNE,22,4.4,4.4,83,-99.99,,,-99.99,tws,2013-07-26 07:32:00,
2013-07-26 03:37:00,62.0,56.8,30.05,North,360,2.8,2.8,83,-99.99,,,-99.99,tws,2013-07-26 07:37:00,
2013-07-26 03:42:00,61.6,56.5,30.04,NE,45,6.1,6.1,83,-99.99,,,-99.99,tws,2013-07-26 07:42:00,
2013-07-26 03:47:00,61.5,56.7,30.05,NNE,22,8.8,8.8,84,-99.99,,,-99.99,tws,2013-07-26 07:47:00,
2013-07-26 03:52:00,61.7,56.7,30.05,NE,45,4.8,4.8,83,-99.99,,,-99.99,tws,2013-07-26 07:52:00,
2013-07-26 03:57:00,61.6,56.6,30.05,NW,315,7.8,7.8,83,-99.99,,,-99.99,tws,2013-07-26 07:57:00,
2013-07-26 04:02:00,61.5,56.6,30.05,NNE,22,8.1,8.1,83,-99.99,,,-99.99,tws,2013-07-26 08:02:00,
2013-07-26 04:07:00,61.3,56.3,30.05,NNE,22,10.0,10.0,83,-99.99,,,-99.99,tws,2013-07-26 08:07:00,
2013-07-26 04:12:00,61.4,56.3,30.05,NE,45,9.0,9.0,83,-99.99,,,-99.99,tws,2013-07-26 08:12:00,
2013-07-26 04:17:00,61.7,56.5,30.05,NE,45,3.7,3.7,82,-99.99,,,-99.99,tws,2013-07-26 08:17:00,
2013-07-26 04:22:00,61.5,56.3,30.05,NE,45,5.4,5.4,82,-99.99,,,-99.99,tws,2013-07-26 08:22:00,
2013-07-26 04:27:00,61.2,56.3,30.05,NE,45,7.3,7.3,83,-99.99,,,-99.99,tws,2013-07-26 08:27:00,
2013-07-26 04:32:00,61.2,55.9,30.04,NE,45,9.1,9.1,82,-99.99,,,-99.99,tws,2013-07-26 08:32:00,
2013-07-26 04:37:00,61.3,56.1,30.04,NE,45,9.3,9.3,82,-99.99,,,-99.99,tws,2013-07-26 08:37:00,
2013-07-26 04:42:00,60.9,55.8,30.04,East,90,9.6,9.6,83,-99.99,,,-99.99,tws,2013-07-26 08:42:00,
2013-07-26 04:47:00,61.3,56.1,30.04,East,90,4.9,4.9,82,-99.99,,,-99.99,tws,2013-07-26 08:47:00,
2013-07-26 04:52:00,61.2,55.9,30.05,ENE,67,2.2,2.2,82,-99.99,,,-99.99,tws,2013-07-26 08:52:00,
2013-07-26 04:57:00,61.4,56.1,30.05,North,0,5.3,5.3,82,-99.99,,,-99.99,tws,2013-07-26 08:57:00,
2013-07-26 05:02:00,61.4,56.3,30.05,North,0,3.0,3.0,83,-99.99,,,-99.99,tws,2013-07-26 09:02:00,
2013-07-26 05:07:00,61.2,56.0,30.05,NNW,337,5.6,5.6,82,-99.99,,,-99.99,tws,2013-07-26 09:07:00,
2013-07-26 05:12:00,61.3,55.7,30.05,ENE,67,7.0,7.0,81,-99.99,,,-99.99,tws,2013-07-26 09:12:00,
2013-07-26 05:17:00,61.2,55.9,30.05,ENE,67,6.8,6.8,82,-99.99,,,-99.99,tws,2013-07-26 09:17:00,
2013-07-26 05:22:00,61.3,55.7,30.05,NW,315,2.1,2.1,81,-99.99,,,-99.99,tws,2013-07-26 09:22:00,
2013-07-26 05:27:00,61.3,55.6,30.05,West,270,3.7,3.7,81,-99.99,,,-99.99,tws,2013-07-26 09:27:00,
2013-07-26 05:32:00,61.3,55.5,30.05,NE,45,6.1,6.1,81,-99.99,,,-99.99,tws,2013-07-26 09:32:00,
2013-07-26 05:37:00,61.3,55.1,30.05,NNE,22,4.7,4.7,79,-99.99,,,-99.99,tws,2013-07-26 09:37:00,
2013-07-26 05:43:00,61.2,55.4,30.05,NNE,22,10.3,10.3,81,-99.99,,,-99.99,tws,2013-07-26 09:43:00,
2013-07-26 05:48:00,61.2,55.2,30.05,East,90,9.8,9.8,80,-99.99,,,-99.99,tws,2013-07-26 09:48:00,
2013-07-26 05:53:00,61.0,55.5,30.05,NNE,22,5.3,5.3,81,-99.99,,,-99.99,tws,2013-07-26 09:53:00,
2013-07-26 05:58:00,60.8,55.3,30.04,NE,45,2.0,2.0,81,-99.99,,,-99.99,tws,2013-07-26 09:58:00,
2013-07-26 06:03:00,61.0,55.7,30.05,WNW,292,0.6,0.6,82,-99.99,,,-99.99,tws,2013-07-26 10:03:00,
2013-07-26 06:08:00,60.9,55.5,30.05,NNW,337,2.4,2.4,82,-99.99,,,-99.99,tws,2013-07-26 10:08:00,
2013-07-26 06:13:00,60.8,55.2,30.05,SE,135,1.7,1.7,81,-99.99,,,-99.99,tws,2013-07-26 10:13:00,
2013-07-26 06:18:00,61.3,55.8,30.05,NE,45,8.7,8.7,82,-99.99,,,-99.99,tws,2013-07-26 10:18:00,
2013-07-26 06:23:00,61.4,55.7,30.05,NE,45,2.8,2.8,81,-99.99,,,-99.99,tws,2013-07-26 10:23:00,
2013-07-26 06:28:00,61.4,55.5,30.05,NE,45,3.9,3.9,80,-99.99,,,-99.99,tws,2013-07-26 10:28:00,
2013-07-26 06:33:00,61.5,55.9,30.05,NE,45,3.7,3.7,81,-99.99,,,-99.99,tws,2013-07-26 10:33:00,
2013-07-26 06:38:00,61.3,56.1,30.05,NNE,22,3.2,3.2,82,-99.99,,,-99.99,tws,2013-07-26 10:38:00,
2013-07-26 06:43:00,61.6,56.2,30.05,NE,45,5.0,5.0,82,-99.99,,,-99.99,tws,2013-07-26 10:43:00,
2013-07-26 06:48:00,61.4,56.1,30.05,NNE,22,6.8,6.8,82,-99.99,,,-99.99,tws,2013-07-26 10:48:00,
2013-07-26 06:53:00,61.5,56.3,30.05,ENE,67,6.8,6.8,82,-99.99,,,-99.99,tws,2013-07-26 10:53:00,
2013-07-26 06:58:00,61.4,56.1,30.05,NNE,22,7.1,7.1,82,-99.99,,,-99.99,tws,2013-07-26 10:58:00,
2013-07-26 07:03:00,61.4,56.2,30.05,NNE,22,5.2,5.2,82,-99.99,,,-99.99,tws,2013-07-26 11:03:00,
2013-07-26 07:08:00,61.5,56.0,30.05,East,90,5.3,5.3,82,-99.99,,,-99.99,tws,2013-07-26 11:08:00,
2013-07-26 07:13:00,61.3,55.8,30.05,North,360,7.0,7.0,82,-99.99,,,-99.99,tws,2013-07-26 11:13:00,
2013-07-26 07:18:00,61.5,55.9,30.05,NE,45,5.3,5.3,81,-99.99,,,-99.99,tws,2013-07-26 11:18:00,
2013-07-26 07:23:00,61.3,55.6,30.05,NNE,22,9.3,9.3,81,-99.99,,,-99.99,tws,2013-07-26 11:23:00,
2013-07-26 07:28:00,61.7,55.9,30.05,ESE,112,1.5,1.5,81,-99.99,,,-99.99,tws,2013-07-26 11:28:00,
2013-07-26 07:33:00,62.0,55.7,30.05,WNW,292,3.1,3.1,79,-99.99,,,-99.99,tws,2013-07-26 11:33:00,
2013-07-26 07:39:00,61.7,55.9,30.05,WNW,292,7.7,7.7,81,-99.99,,,-99.99,tws,2013-07-26 11:39:00,
2013-07-26 07:44:00,62.5,55.7,30.05,ENE,67,3.0,3.0,78,-99.99,,,-99.99,tws,2013-07-26 11:44:00,
2013-07-26 07:49:00,62.2,56.5,30.05,NE,45,5.4,5.4,81,-99.99,,,-99.99,tws,2013-07-26 11:49:00,
2013-07-26 07:54:00,62.6,56.9,30.04,North,360,0.3,0.3,81,-99.99,,,-99.99,tws,2013-07-26 11:54:00,
2013-07-26 07:59:00,62.5,56.4,30.05,NNW,337,5.5,5.5,80,-99.99,,,-99.99,tws,2013-07-26 11:59:00,
2013-07-26 08:04:00,63.2,57.0,30.05,NNE,22,8.7,8.7,80,-99.99,,,-99.99,tws,2013-07-26 12:04:00,
2013-07-26 08:09:00,62.6,56.7,30.05,NNW,337,4.0,4.0,80,-99.99,,,-99.99,tws,2013-07-26 12:09:00,
2013-07-26 08:14:00,62.6,56.3,30.05,NNE,22,6.5,6.5,79,-99.99,,,-99.99,tws,2013-07-26 12:14:00,
2013-07-26 08:19:00,63.0,57.0,30.05,NNE,22,1.4,1.4,80,-99.99,,,-99.99,tws,2013-07-26 12:19:00,
2013-07-26 08:24:00,63.0,56.6,30.05,North,360,2.8,2.8,79,-99.99,,,-99.99,tws,2013-07-26 12:24:00,
2013-07-26 08:29:00,62.7,56.3,30.05,NE,45,9.4,9.4,79,-99.99,,,-99.99,tws,2013-07-26 12:29:00,
2013-07-26 08:34:00,63.2,56.1,30.05,ENE,67,2.7,2.7,77,-99.99,,,-99.99,tws,2013-07-26 12:34:00,
2013-07-26 08:40:00,63.4,57.5,30.05,NNE,22,2.7,2.7,80,-99.99,,,-99.99,tws,2013-07-26 12:40:00,
2013-07-26 08:45:00,63.5,57.0,30.05,NE,45,3.7,3.7,79,-99.99,,,-99.99,tws,2013-07-26 12:45:00,
2013-07-26 08:50:00,62.7,56.4,30.05,NE,45,7.9,7.9,79,-99.99,,,-99.99,tws,2013-07-26 12:50:00,
2013-07-26 08:55:00,62.7,56.1,30.05,North,0,6.3,6.3,78,-99.99,,,-99.99,tws,2013-07-26 12:55:00,
2013-07-26 09:00:00,62.6,56.1,30.04,WNW,292,3.8,3.8,79,-99.99,,,-99.99,tws,2013-07-26 13:00:00,
2013-07-26 09:05:00,63.2,56.4,30.04,North,0,0.6,0.6,78,-99.99,,,-99.99,tws,2013-07-26 13:05:00,
2013-07-26 09:10:00,63.2,56.0,30.05,ESE,112,5.3,5.3,77,-99.99,,,-99.99,tws,2013-07-26 13:10:00,
2013-07-26 09:15:00,64.2,56.6,30.05,ENE,67,3.7,3.7,76,-99.99,,,-99.99,tws,2013-07-26 13:15:00,
2013-07-26 09:20:00,64.8,57.3,30.05,NNW,337,1.4,1.4,76,-99.99,,,-99.99,tws,2013-07-26 13:20:00,
2013-07-26 09:25:00,66.0,58.2,30.05,North,360,1.1,1.1,75,-99.99,,,-99.99,tws,2013-07-26 13:25:00,
2013-07-26 09:30:00,65.2,57.4,30.05,NNE,22,6.9,6.9,75,-99.99,,,-99.99,tws,2013-07-26 13:30:00,
2013-07-26 09:35:00,65.7,57.7,30.05,NE,45,13.3,13.3,75,-99.99,,,-99.99,tws,2013-07-26 13:35:00,
2013-07-26 09:40:00,65.7,58.6,30.05,NNE,22,0.3,0.3,77,-99.99,,,-99.99,tws,2013-07-26 13:40:00,
2013-07-26 09:45:00,65.6,58.2,30.05,East,90,0.2,0.2,76,-99.99,,,-99.99,tws,2013-07-26 13:45:00,
2013-07-26 09:50:00,65.6,57.9,30.05,WNW,292,0.0,0.0,76,-99.99,,,-99.99,tws,2013-07-26 13:50:00,
2013-07-26 09:55:00,65.3,57.4,30.05,NNW,337,9.5,9.5,75,-99.99,,,-99.99,tws,2013-07-26 13:55:00,
2013-07-26 10:00:00,67.2,58.8,30.05,NE,45,4.5,4.5,74,-99.99,,,-99.99,tws,2013-07-26 14:00:00,
2013-07-26 10:05:00,68.3,59.0,30.05,NE,45,8.6,8.6,71,-99.99,,,-99.99,tws,2013-07-26 14:05:00,
2013-07-26 10:10:00,67.8,58.6,30.05,NNE,22,14.1,14.1,72,-99.99,,,-99.99,tws,2013-07-26 14:10:00,
2013-07-26 10:15:00,69.5,59.1,30.05,NNW,337,9.4,9.4,69,-99.99,,,-99.99,tws,2013-07-26 14:15:00,
2013-07-26 10:20:00,67.4,58.2,30.05,NE,45,13.4,13.4,72,-99.99,,,-99.99,tws,2013-07-26 14:20:00,
2013-07-26 10:25:00,69.3,58.4,30.05,North,360,7.7,7.7,68,-99.99,,,-99.99,tws,2013-07-26 14:25:00,
2013-07-26 10:30:00,67.8,58.1,30.05,NNW,337,12.0,12.0,70,-99.99,,,-99.99,tws,2013-07-26 14:30:00,
2013-07-26 10:35:00,72.6,61.1,30.05,North,360,10.3,10.3,66,-99.99,,,-99.99,tws,2013-07-26 14:35:00,
2013-07-26 10:40:00,70.8,60.5,30.05,NNE,22,6.9,6.9,69,-99.99,,,-99.99,tws,2013-07-26 14:40:00,
2013-07-26 10:46:00,71.1,60.1,30.05,ENE,67,7.7,7.7,67,-99.99,,,-99.99,tws,2013-07-26 14:46:00,
2013-07-26 10:51:00,73.5,62.6,30.05,NNE,22,5.7,5.7,68,-99.99,,,-99.99,tws,2013-07-26 14:51:00,
2013-07-26 10:56:00,72.4,61.1,30.05,NNE,22,13.5,13.5,67,-99.99,,,-99.99,tws,2013-07-26 14:56:00,
2013-07-26 11:01:00,72.9,60.7,30.05,NE,45,6.5,6.5,65,-99.99,,,-99.99,tws,2013-07-26 15:01:00,
2013-07-26 11:06:00,74.0,61.4,30.05,NNE,22,9.2,9.2,64,-99.99,,,-99.99,tws,2013-07-26 15:06:00,
2013-07-26 11:11:00,71.1,60.2,30.05,ESE,112,7.0,7.0,68,-99.99,,,-99.99,tws,2013-07-26 15:11:00,
2013-07-26 11:16:00,72.3,60.8,30.05,West,270,6.1,6.1,66,-99.99,,,-99.99,tws,2013-07-26 15:16:00,
2013-07-26 11:21:00,72.9,60.9,30.05,NNE,22,6.7,6.7,65,-99.99,,,-99.99,tws,2013-07-26 15:21:00,
2013-07-26 11:26:00,72.2,60.5,30.04,NNW,337,7.5,7.5,66,-99.99,,,-99.99,tws,2013-07-26 15:26:00,
2013-07-26 11:31:00,71.7,60.3,30.03,WNW,292,12.6,12.6,66,-99.99,,,-99.99,tws,2013-07-26 15:31:00,
2013-07-26 11:37:00,75.8,63.8,30.04,ENE,67,8.1,8.1,65,-99.99,,,-99.99,tws,2013-07-26 15:37:00,
2013-07-26 11:42:00,77.4,63.2,30.04,East,90,7.8,7.8,61,-99.99,,,-99.99,tws,2013-07-26 15:42:00,
2013-07-26 11:47:00,75.0,62.0,30.04,ENE,67,13.3,13.3,63,-99.99,,,-99.99,tws,2013-07-26 15:47:00,
2013-07-26 11:52:00,78.0,63.8,30.04,North,0,5.3,5.3,61,-99.99,,,-99.99,tws,2013-07-26 15:52:00,
2013-07-26 11:57:00,77.7,63.7,30.04,NW,315,9.8,9.8,61,-99.99,,,-99.99,tws,2013-07-26 15:57:00,
2013-07-26 12:02:00,76.5,62.6,30.04,NNE,22,10.3,10.3,61,-99.99,,,-99.99,tws,2013-07-26 16:02:00,
2013-07-26 12:07:00,77.5,64.2,30.04,ENE,67,12.5,12.5,63,-99.99,,,-99.99,tws,2013-07-26 16:07:00,
2013-07-26 12:12:00,77.1,63.2,30.03,WNW,292,12.5,12.5,61,-99.99,,,-99.99,tws,2013-07-26 16:12:00,
2013-07-26 12:17:00,77.7,64.6,30.02,SSE,157,9.0,9.0,63,-99.99,,,-99.99,tws,2013-07-26 16:17:00,
2013-07-26 12:22:00,76.9,62.8,30.02,NE,45,15.0,15.0,61,-99.99,,,-99.99,tws,2013-07-26 16:22:00,
2013-07-26 12:27:00,76.0,63.2,30.02,NNE,22,15.5,15.5,64,-99.99,,,-99.99,tws,2013-07-26 16:27:00,
2013-07-26 12:32:00,77.7,65.2,30.02,ENE,67,11.8,11.8,65,-99.99,,,-99.99,tws,2013-07-26 16:32:00,
2013-07-26 12:37:00,77.7,63.7,30.02,NNE,22,10.1,10.1,61,-99.99,,,-99.99,tws,2013-07-26 16:37:00,
2013-07-26 12:42:00,78.9,66.1,30.02,NE,45,6.1,6.1,64,-99.99,,,-99.99,tws,2013-07-26 16:42:00,
2013-07-26 12:47:00,78.0,64.9,30.02,ENE,67,7.0,7.0,63,-99.99,,,-99.99,tws,2013-07-26 16:47:00,
2013-07-26 12:52:00,79.5,66.5,30.02,ENE,67,4.8,4.8,64,-99.99,,,-99.99,tws,2013-07-26 16:52:00,
2013-07-26 12:58:00,79.5,64.7,30.02,NE,45,5.9,5.9,60,-99.99,,,-99.99,tws,2013-07-26 16:58:00,
2013-07-26 13:03:00,81.6,67.1,30.02,NW,315,5.0,5.0,60,-99.99,,,-99.99,tws,2013-07-26 17:03:00,
2013-07-26 13:08:00,78.2,63.7,30.02,East,90,1.8,1.8,60,-99.99,,,-99.99,tws,2013-07-26 17:08:00,
2013-07-26 13:13:00,78.6,66.0,30.01,ENE,67,15.5,15.5,64,-99.99,,,-99.99,tws,2013-07-26 17:13:00,
2013-07-26 13:18:00,79.6,65.1,30.02,NW,315,11.1,11.1,60,-99.99,,,-99.99,tws,2013-07-26 17:18:00,
2013-07-26 13:23:00,80.2,67.3,30.01,NNE,22,5.9,5.9,64,-99.99,,,-99.99,tws,2013-07-26 17:23:00,
2013-07-26 13:28:00,80.7,68.1,30.01,NNE,22,4.2,4.2,65,-99.99,,,-99.99,tws,2013-07-26 17:28:00,
2013-07-26 13:33:00,79.7,65.2,30.01,East,90,12.8,12.8,60,-99.99,,,-99.99,tws,2013-07-26 17:33:00,
2013-07-26 13:38:00,79.8,66.3,30.02,NE,45,13.2,13.2,62,-99.99,,,-99.99,tws,2013-07-26 17:38:00,
2013-07-26 13:43:00,80.5,66.0,30.01,NE,45,13.3,13.3,60,-99.99,,,-99.99,tws,2013-07-26 17:43:00,
2013-07-26 13:48:00,80.1,65.4,30.01,NNE,22,10.5,10.5,60,-99.99,,,-99.99,tws,2013-07-26 17:48:00,
2013-07-26 13:53:00,80.5,66.1,30.01,East,90,6.7,6.7,61,-99.99,,,-99.99,tws,2013-07-26 17:53:00,
2013-07-26 13:58:00,81.1,65.3,30.00,NE,45,10.2,10.2,58,-99.99,,,-99.99,tws,2013-07-26 17:58:00,
2013-07-26 14:03:00,78.8,64.6,30.00,East,90,13.4,13.4,61,-99.99,,,-99.99,tws,2013-07-26 18:03:00,
2013-07-26 14:08:00,81.6,66.7,30.01,East,90,11.8,11.8,59,-99.99,,,-99.99,tws,2013-07-26 18:08:00,
2013-07-26 14:13:00,83.0,67.0,30.00,NE,45,2.5,2.5,57,-99.99,,,-99.99,tws,2013-07-26 18:13:00,
2013-07-26 14:18:00,82.0,64.5,30.01,NE,45,11.1,11.1,54,-99.99,,,-99.99,tws,2013-07-26 18:18:00,
2013-07-26 14:23:00,83.6,66.6,30.00,NW,315,1.1,1.1,56,-99.99,,,-99.99,tws,2013-07-26 18:23:00,
2013-07-26 14:28:00,83.1,66.7,30.01,ENE,67,6.5,6.5,57,-99.99,,,-99.99,tws,2013-07-26 18:28:00,
2013-07-26 14:33:00,82.2,65.5,30.01,ESE,112,2.0,2.0,56,-99.99,,,-99.99,tws,2013-07-26 18:33:00,
2013-07-26 14:38:00,81.6,64.6,30.00,ENE,67,5.4,5.4,55,-99.99,,,-99.99,tws,2013-07-26 18:38:00,
2013-07-26 14:43:00,84.2,66.5,30.00,WNW,292,8.5,8.5,54,-99.99,,,-99.99,tws,2013-07-26 18:43:00,
2013-07-26 14:48:00,84.8,68.6,30.00,NNE,22,4.5,4.5,57,-99.99,,,-99.99,tws,2013-07-26 18:48:00,
2013-07-26 14:53:00,81.3,65.1,30.00,WNW,292,5.9,5.9,57,-99.99,,,-99.99,tws,2013-07-26 18:53:00,
2013-07-26 14:58:00,86.7,68.4,30.00,NE,45,5.5,5.5,53,-99.99,,,-99.99,tws,2013-07-26 18:58:00,
2013-07-26 15:03:00,83.8,66.3,30.00,North,0,11.7,11.7,55,-99.99,,,-99.99,tws,2013-07-26 19:03:00,
2013-07-26 15:08:00,85.2,67.5,30.00,North,0,7.1,7.1,54,-99.99,,,-99.99,tws,2013-07-26 19:08:00,
2013-07-26 15:13:00,84.5,65.9,30.00,East,90,9.2,9.2,53,-99.99,,,-99.99,tws,2013-07-26 19:13:00,
2013-07-26 15:18:00,83.9,67.4,30.00,NE,45,8.4,8.4,57,-99.99,,,-99.99,tws,2013-07-26 19:18:00,
2013-07-26 15:23:00,84.3,67.1,30.00,ENE,67,11.0,11.0,55,-99.99,,,-99.99,tws,2013-07-26 19:23:00,
2013-07-26 15:28:00,83.9,65.0,30.00,NE,45,14.0,14.0,52,-99.99,,,-99.99,tws,2013-07-26 19:28:00,
2013-07-26 15:33:00,84.8,67.0,30.00,NE,45,2.0,2.0,54,-99.99,,,-99.99,tws,2013-07-26 19:33:00,
2013-07-26 15:38:00,86.5,66.9,30.00,ENE,67,9.6,9.6,51,-99.99,,,-99.99,tws,2013-07-26 19:38:00,
2013-07-26 15:43:00,84.2,66.6,30.00,NE,45,8.9,8.9,54,-99.99,,,-99.99,tws,2013-07-26 19:43:00,
2013-07-26 15:48:00,83.9,65.2,30.00,North,0,10.5,10.5,52,-99.99,,,-99.99,tws,2013-07-26 19:48:00,
2013-07-26 15:53:00,84.5,65.6,30.00,East,90,11.9,11.9,52,-99.99,,,-99.99,tws,2013-07-26 19:53:00,
2013-07-26 15:58:00,85.1,68.3,30.00,East,90,8.1,8.1,56,-99.99,,,-99.99,tws,2013-07-26 19:58:00,
2013-07-26 16:03:00,85.8,68.7,30.00,ESE,112,5.0,5.0,56,-99.99,,,-99.99,tws,2013-07-26 20:03:00,
2013-07-26 16:08:00,85.5,64.7,29.99,East,90,2.9,2.9,49,-99.99,,,-99.99,tws,2013-07-26 20:08:00,
2013-07-26 16:13:00,86.9,68.0,29.99,NNE,22,7.3,7.3,52,-99.99,,,-99.99,tws,2013-07-26 20:13:00,
2013-07-26 16:18:00,86.4,66.5,30.00,ESE,112,5.2,5.2,50,-99.99,,,-99.99,tws,2013-07-26 20:18:00,
2013-07-26 16:23:00,84.2,66.7,29.99,NE,45,0.7,0.7,55,-99.99,,,-99.99,tws,2013-07-26 20:23:00,
2013-07-26 16:28:00,86.7,67.8,30.00,ESE,112,8.6,8.6,52,-99.99,,,-99.99,tws,2013-07-26 20:28:00,
2013-07-26 16:33:00,86.9,67.0,29.99,NE,45,8.9,8.9,50,-99.99,,,-99.99,tws,2013-07-26 20:33:00,
2013-07-26 16:38:00,88.1,67.9,30.00,ENE,67,1.2,1.2,50,-99.99,,,-99.99,tws,2013-07-26 20:38:00,
2013-07-26 16:43:00,88.1,67.9,29.99,East,90,1.6,1.6,50,-99.99,,,-99.99,tws,2013-07-26 20:43:00,
2013-07-26 16:48:00,86.7,67.5,29.99,ESE,112,2.5,2.5,52,-99.99,,,-99.99,tws,2013-07-26 20:48:00,
2013-07-26 16:53:00,86.1,67.0,29.99,ENE,67,5.4,5.4,52,-99.99,,,-99.99,tws,2013-07-26 20:53:00,
2013-07-26 16:58:00,87.6,68.1,29.99,ESE,112,7.7,7.7,51,-99.99,,,-99.99,tws,2013-07-26 20:58:00,
2013-07-26 17:03:00,87.5,68.2,29.99,East,90,8.7,8.7,52,-99.99,,,-99.99,tws,2013-07-26 21:03:00,
2013-07-26 17:08:00,87.3,67.3,30.00,NNW,337,0.0,0.0,50,-99.99,,,-99.99,tws,2013-07-26 21:08:00,
2013-07-26 17:13:00,86.3,67.0,29.99,NE,45,8.7,8.7,52,-99.99,,,-99.99,tws,2013-07-26 21:13:00,
2013-07-26 17:18:00,87.7,68.1,30.00,ENE,67,2.8,2.8,51,-99.99,,,-99.99,tws,2013-07-26 21:18:00,
2013-07-26 17:23:00,88.2,68.1,29.99,East,90,3.7,3.7,50,-99.99,,,-99.99,tws,2013-07-26 21:23:00,
2013-07-26 17:28:00,87.2,67.1,30.00,South,180,6.9,6.9,50,-99.99,,,-99.99,tws,2013-07-26 21:28:00,
2013-07-26 17:33:00,89.7,67.8,30.00,ESE,112,10.2,10.2,47,-99.99,,,-99.99,tws,2013-07-26 21:33:00,
2013-07-26 17:38:00,84.9,66.1,29.99,East,90,8.3,8.3,52,-99.99,,,-99.99,tws,2013-07-26 21:38:00,
2013-07-26 17:43:00,88.7,67.5,29.99,ENE,67,8.3,8.3,48,-99.99,,,-99.99,tws,2013-07-26 21:43:00,
2013-07-26 17:48:00,87.8,66.1,29.99,North,0,4.3,4.3,48,-99.99,,,-99.99,tws,2013-07-26 21:48:00,
2013-07-26 17:53:00,89.2,67.8,29.99,ENE,67,1.2,1.2,48,-99.99,,,-99.99,tws,2013-07-26 21:53:00,
2013-07-26 17:58:00,89.9,67.6,29.99,East,90,2.8,2.8,47,-99.99,,,-99.99,tws,2013-07-26 21:58:00,
2013-07-26 18:03:00,90.3,67.9,29.99,NE,45,0.4,0.4,47,-99.99,,,-99.99,tws,2013-07-26 22:03:00,
2013-07-26 18:08:00,88.7,67.5,29.99,ENE,67,0.6,0.6,48,-99.99,,,-99.99,tws,2013-07-26 22:08:00,
2013-07-26 18:13:00,88.5,66.2,29.99,NNE,22,4.6,4.6,47,-99.99,,,-99.99,tws,2013-07-26 22:13:00,
2013-07-26 18:18:00,88.3,67.2,30.00,East,90,1.3,1.3,49,-99.99,,,-99.99,tws,2013-07-26 22:18:00,
2013-07-26 18:23:00,89.2,67.6,29.99,ESE,112,0.1,0.1,48,-99.99,,,-99.99,tws,2013-07-26 22:23:00,
2013-07-26 18:28:00,88.6,66.1,29.99,ENE,67,1.7,1.7,46,-99.99,,,-99.99,tws,2013-07-26 22:28:00,
2013-07-26 18:33:00,87.9,66.6,29.99,NNE,22,0.0,0.0,48,-99.99,,,-99.99,tws,2013-07-26 22:33:00,
2013-07-26 18:38:00,87.3,66.6,29.99,ENE,67,0.3,0.3,49,-99.99,,,-99.99,tws,2013-07-26 22:38:00,
2013-07-26 18:43:00,87.9,67.4,29.99,ESE,112,0.4,0.4,50,-99.99,,,-99.99,tws,2013-07-26 22:43:00,
2013-07-26 18:48:00,86.4,66.3,30.00,East,90,0.0,0.0,50,-99.99,,,-99.99,tws,2013-07-26 22:48:00,
2013-07-26 18:53:00,88.5,67.6,30.00,East,90,0.1,0.1,49,-99.99,,,-99.99,tws,2013-07-26 22:53:00,
2013-07-26 18:58:00,86.1,66.1,30.00,NE,45,0.0,0.0,50,-99.99,,,-99.99,tws,2013-07-26 22:58:00,
2013-07-26 19:03:00,86.7,66.6,30.00,NE,45,0.9,0.9,50,-99.99,,,-99.99,tws,2013-07-26 23:03:00,
2013-07-26 19:08:00,86.1,65.4,29.99,NNE,22,0.0,0.0,49,-99.99,,,-99.99,tws,2013-07-26 23:08:00,
2013-07-26 19:13:00,86.8,66.3,30.00,NNE,22,0.0,0.0,49,-99.99,,,-99.99,tws,2013-07-26 23:13:00,
2013-07-26 19:18:00,85.9,65.9,30.00,East,90,0.0,0.0,50,-99.99,,,-99.99,tws,2013-07-26 23:18:00,
2013-07-26 19:23:00,84.5,64.8,30.00,East,90,1.3,1.3,51,-99.99,,,-99.99,tws,2013-07-26 23:23:00,
2013-07-26 19:28:00,81.2,64.3,30.00,ESE,112,0.0,0.0,55,-99.99,,,-99.99,tws,2013-07-26 23:28:00,
2013-07-26 19:33:00,83.0,65.1,30.00,ESE,112,0.0,0.0,54,-99.99,,,-99.99,tws,2013-07-26 23:33:00,
2013-07-26 19:38:00,81.9,64.9,30.00,East,90,0.0,0.0,56,-99.99,,,-99.99,tws,2013-07-26 23:38:00,
2013-07-26 19:43:00,81.1,64.6,30.00,East,90,0.0,0.0,56,-99.99,,,-99.99,tws,2013-07-26 23:43:00,
2013-07-26 19:48:00,79.5,64.5,30.00,NE,45,0.0,0.0,59,-99.99,,,-99.99,tws,2013-07-26 23:48:00,
2013-07-26 19:53:00,78.9,64.7,30.00,East,90,0.0,0.0,61,-99.99,,,-99.99,tws,2013-07-26 23:53:00,
2013-07-26 19:58:00,77.8,64.4,30.00,East,90,0.0,0.0,62,-99.99,,,-99.99,tws,2013-07-26 23:58:00,
2013-07-26 20:03:00,76.4,64.1,30.00,East,90,0.0,0.0,65,-99.99,,,-99.99,tws,2013-07-27 00:03:00,
2013-07-26 20:08:00,75.1,64.5,30.00,East,90,0.0,0.0,69,-99.99,,,-99.99,tws,2013-07-27 00:08:00,
2013-07-26 20:13:00,75.0,63.9,30.00,East,90,0.0,0.0,67,-99.99,,,-99.99,tws,2013-07-27 00:13:00,
2013-07-26 20:18:00,74.8,64.2,30.00,ENE,67,0.0,0.0,69,-99.99,,,-99.99,tws,2013-07-27 00:18:00,
2013-07-26 20:23:00,73.2,64.5,30.00,East,90,1.0,1.0,73,-99.99,,,-99.99,tws,2013-07-27 00:23:00,
2013-07-26 20:28:00,73.3,64.2,30.00,East,90,0.8,0.8,72,-99.99,,,-99.99,tws,2013-07-27 00:28:00,
2013-07-26 20:33:00,73.0,64.0,30.00,East,90,0.0,0.0,73,-99.99,,,-99.99,tws,2013-07-27 00:33:00,
2013-07-26 20:38:00,72.4,64.2,30.00,East,90,0.0,0.0,75,-99.99,,,-99.99,tws,2013-07-27 00:38:00,
2013-07-26 20:44:00,72.2,64.5,30.00,East,90,0.0,0.0,76,-99.99,,,-99.99,tws,2013-07-27 00:44:00,
2013-07-26 20:49:00,70.7,63.7,30.00,NNE,22,0.0,0.0,78,-99.99,,,-99.99,tws,2013-07-27 00:49:00,
2013-07-26 20:54:00,70.8,63.9,30.00,ENE,67,0.0,0.0,78,-99.99,,,-99.99,tws,2013-07-27 00:54:00,
2013-07-26 20:59:00,70.4,63.8,30.00,ENE,67,0.0,0.0,79,-99.99,,,-99.99,tws,2013-07-27 00:59:00,
2013-07-26 21:04:00,70.8,64.2,30.00,NE,45,0.0,0.0,79,-99.99,,,-99.99,tws,2013-07-27 01:04:00,
2013-07-26 21:09:00,69.6,63.5,30.01,SE,135,0.0,0.0,80,-99.99,,,-99.99,tws,2013-07-27 01:09:00,
2013-07-26 21:14:00,69.3,64.0,30.01,SE,135,0.0,0.0,83,-99.99,,,-99.99,tws,2013-07-27 01:14:00,
2013-07-26 21:19:00,68.8,63.9,30.01,SE,135,0.0,0.0,84,-99.99,,,-99.99,tws,2013-07-27 01:19:00,
2013-07-26 21:25:00,69.4,64.1,30.02,SE,135,0.0,0.0,83,-99.99,,,-99.99,tws,2013-07-27 01:25:00,
2013-07-26 21:30:00,69.0,64.1,30.02,SE,135,0.0,0.0,84,-99.99,,,-99.99,tws,2013-07-27 01:30:00,
2013-07-26 21:35:00,68.7,64.0,30.02,SE,135,0.0,0.0,84,-99.99,,,-99.99,tws,2013-07-27 01:35:00,
2013-07-26 21:40:00,69.0,64.2,30.02,SE,135,0.0,0.0,84,-99.99,,,-99.99,tws,2013-07-27 01:40:00,
2013-07-26 21:45:00,68.1,63.9,30.02,SE,135,0.0,0.0,86,-99.99,,,-99.99,tws,2013-07-27 01:45:00,
2013-07-26 21:50:00,66.6,63.3,30.02,SE,135,0.0,0.0,89,-99.99,,,-99.99,tws,2013-07-27 01:50:00,
2013-07-26 21:55:00,67.5,63.6,30.02,SE,135,0.0,0.0,87,-99.99,,,-99.99,tws,2013-07-27 01:55:00,
2013-07-26 22:00:00,67.4,63.5,30.02,SE,135,0.0,0.0,87,-99.99,,,-99.99,tws,2013-07-27 02:00:00,
2013-07-26 22:05:00,67.0,63.3,30.02,SE,135,0.0,0.0,87,-99.99,,,-99.99,tws,2013-07-27 02:05:00,
2013-07-26 22:10:00,66.0,62.8,30.02,WNW,292,0.0,0.0,89,-99.99,,,-99.99,tws,2013-07-27 02:10:00,
2013-07-26 22:15:00,66.7,63.2,30.02,WNW,292,0.0,0.0,88,-99.99,,,-99.99,tws,2013-07-27 02:15:00,
2013-07-26 22:20:00,66.0,62.9,30.02,WNW,292,0.0,0.0,89,-99.99,,,-99.99,tws,2013-07-27 02:20:00,
2013-07-26 22:25:00,66.5,62.6,30.02,WNW,292,0.0,0.0,87,-99.99,,,-99.99,tws,2013-07-27 02:25:00,
2013-07-26 22:30:00,65.8,62.7,30.02,ESE,112,0.0,0.0,89,-99.99,,,-99.99,tws,2013-07-27 02:30:00,
2013-07-26 22:35:00,65.8,62.7,30.02,ESE,112,0.0,0.0,89,-99.99,,,-99.99,tws,2013-07-27 02:35:00,
2013-07-26 22:40:00,65.8,62.9,30.02,ESE,112,0.0,0.0,90,-99.99,,,-99.99,tws,2013-07-27 02:40:00,
2013-07-26 22:45:00,65.1,62.9,30.02,ESE,112,0.0,0.0,92,-99.99,,,-99.99,tws,2013-07-27 02:45:00,
2013-07-26 22:50:00,65.4,62.9,30.02,ESE,112,0.0,0.0,91,-99.99,,,-99.99,tws,2013-07-27 02:50:00,
2013-07-26 22:55:00,65.8,63.2,30.02,ESE,112,0.0,0.0,91,-99.99,,,-99.99,tws,2013-07-27 02:55:00,
2013-07-26 23:00:00,66.0,63.2,30.02,ESE,112,0.0,0.0,90,-99.99,,,-99.99,tws,2013-07-27 03:00:00,
2013-07-26 23:05:00,66.0,62.8,30.02,ESE,112,0.0,0.0,89,-99.99,,,-99.99,tws,2013-07-27 03:05:00,
2013-07-26 23:10:00,65.6,62.6,30.02,ESE,112,0.0,0.0,90,-99.99,,,-99.99,tws,2013-07-27 03:10:00,
2013-07-26 23:15:00,65.6,62.9,30.02,ESE,112,0.0,0.0,90,-99.99,,,-99.99,tws,2013-07-27 03:15:00,
2013-07-26 23:20:00,65.2,63.0,30.02,ESE,112,0.0,0.0,92,-99.99,,,-99.99,tws,2013-07-27 03:20:00,
2013-07-26 23:25:00,65.4,63.0,30.02,ESE,112,0.0,0.0,91,-99.99,,,-99.99,tws,2013-07-27 03:25:00,
2013-07-26 23:30:00,65.8,63.3,30.03,ESE,112,0.0,0.0,91,-99.99,,,-99.99,tws,2013-07-27 03:30:00,
2013-07-26 23:35:00,65.9,63.4,30.03,ESE,112,0.0,0.0,91,-99.99,,,-99.99,tws,2013-07-27 03:35:00,
2013-07-26 23:40:00,65.7,63.3,30.02,SE,135,0.0,0.0,92,-99.99,,,-99.99,tws,2013-07-27 03:40:00,
2013-07-26 23:45:00,65.2,63.2,30.02,SE,135,0.0,0.0,93,-99.99,,,-99.99,tws,2013-07-27 03:45:00,
2013-07-26 23:50:00,65.2,63.2,30.02,SE,135,0.0,0.0,93,-99.99,,,-99.99,tws,2013-07-27 03:50:00,
2013-07-26 23:55:00,64.9,63.1,30.03,SE,135,0.0,0.0,94,-99.99,,,-99.99,tws,2013-07-27 03:55:00,